Time;durP1;ratioP1;P1;durP2;ratioP2;P2;SDS_P1;SDS_P2;PMS_P1;PMS_P2;Temp;Humidity;BMP_temperature;BMP_pressure;BME280_temperature;BME280_humidity;BME280_pressure;Samples;Min_cycle;Max_cycle;Signal;HPM_P1;HPM_P2
2022/12/11 00:01:57;;;;;;;35.15;9.05;;;0.10;99.90;;;;;;5006902;28;20503;-37
2022/12/11 00:04:23;;;;;;;36.13;9.38;;;0.10;99.90;;;;;;5005229;28;20030;-36
2022/12/11 00:06:50;;;;;;;31.88;10.57;;;0.10;99.90;;;;;;4988993;28;20053;-37
2022/12/11 00:09:17;;;;;;;34.67;10.02;;;0.10;99.90;;;;;;5004686;28;20523;-36
2022/12/11 00:11:43;;;;;;;45.90;11.38;;;0.10;99.90;;;;;;5004240;28;20081;-36
2022/12/11 00:14:11;;;;;;;43.00;10.93;;;0.10;99.90;;;;;;5007021;28;20164;-37
2022/12/11 00:16:36;;;;;;;40.22;12.25;;;0.10;99.90;;;;;;5006132;28;20046;-36
2022/12/11 00:19:03;;;;;;;36.85;9.35;;;0.10;99.90;;;;;;5005709;28;20087;-36
2022/12/11 00:21:28;;;;;;;34.50;9.80;;;0.20;99.90;;;;;;5005175;28;20253;-36
2022/12/11 00:23:54;;;;;;;39.13;10.77;;;0.10;99.90;;;;;;5004523;28;21599;-36
2022/12/11 00:26:20;;;;;;;42.75;10.23;;;0.10;99.90;;;;;;5008180;28;20046;-37
2022/12/11 00:28:46;;;;;;;47.42;11.63;;;0.10;99.90;;;;;;5007980;28;20057;-36
2022/12/11 00:31:16;;;;;;;45.65;11.75;;;0.10;99.90;;;;;;5007321;28;20072;-37
2022/12/11 00:33:43;;;;;;;39.00;11.02;;;0.10;99.90;;;;;;5001347;28;20038;-35
2022/12/11 00:36:14;;;;;;;39.10;11.27;;;0.10;99.90;;;;;;5006476;28;20037;-37
2022/12/11 00:38:40;;;;;;;50.38;13.07;;;0.10;99.90;;;;;;5006764;28;20045;-37
2022/12/11 00:41:05;;;;;;;44.97;11.07;;;0.10;99.90;;;;;;5011087;28;20121;-43
2022/12/11 00:43:31;;;;;;;49.15;12.30;;;0.10;99.90;;;;;;5006619;28;20121;-36
2022/12/11 00:45:57;;;;;;;44.45;12.10;;;0.10;99.90;;;;;;5005601;28;20461;-37
2022/12/11 00:48:22;;;;;;;47.88;11.55;;;0.10;99.90;;;;;;5007869;28;20069;-36
2022/12/11 00:50:48;;;;;;;48.25;11.40;;;0.10;99.90;;;;;;4998230;28;20050;-36
2022/12/11 00:53:14;;;;;;;65.75;12.18;;;0.10;99.90;;;;;;5005938;28;20076;-36
2022/12/11 00:55:41;;;;;;;44.08;10.65;;;0.10;99.90;;;;;;5003881;28;20112;-36
2022/12/11 00:58:08;;;;;;;47.97;12.68;;;0.10;99.90;;;;;;5002978;28;20145;-36
2022/12/11 01:00:33;;;;;;;62.90;13.45;;;0.10;99.90;;;;;;5005974;28;20057;-36
2022/12/11 01:02:59;;;;;;;60.47;14.20;;;0.10;99.90;;;;;;5008328;28;20487;-36
2022/12/11 01:05:25;;;;;;;42.80;11.98;;;0.10;99.90;;;;;;5009728;28;20107;-36
2022/12/11 01:07:51;;;;;;;44.08;11.77;;;0.10;99.90;;;;;;5008826;28;20042;-37
2022/12/11 01:10:22;;;;;;;44.83;13.20;;;0.10;99.90;;;;;;5004062;28;20073;-36
2022/12/11 01:12:49;;;;;;;47.40;11.35;;;0.10;99.90;;;;;;5002245;28;20044;-36
2022/12/11 01:15:15;;;;;;;52.22;12.20;;;0.10;99.90;;;;;;5007404;28;20085;-36
2022/12/11 01:17:41;;;;;;;48.53;12.32;;;0.10;99.90;;;;;;5006971;28;20472;-41
2022/12/11 01:20:07;;;;;;;44.60;12.70;;;0.20;99.90;;;;;;5002248;28;20462;-36
2022/12/11 01:22:32;;;;;;;40.65;11.15;;;0.20;99.90;;;;;;5004116;28;20101;-36
2022/12/11 01:24:58;;;;;;;49.00;12.90;;;0.20;99.90;;;;;;5004169;28;20089;-37
2022/12/11 01:27:24;;;;;;;53.38;11.80;;;0.20;99.90;;;;;;5006136;28;20414;-36
2022/12/11 01:29:49;;;;;;;60.20;13.50;;;0.20;99.90;;;;;;5004868;28;20081;-36
2022/12/11 01:32:15;;;;;;;46.67;11.73;;;0.20;99.90;;;;;;5006151;28;20112;-39
2022/12/11 01:34:41;;;;;;;47.03;12.05;;;0.20;99.90;;;;;;5003787;28;20088;-37
2022/12/11 01:37:07;;;;;;;46.67;12.43;;;0.20;99.90;;;;;;5010488;28;20664;-36
2022/12/11 01:39:32;;;;;;;52.67;13.43;;;0.20;99.90;;;;;;4998315;28;20042;-37
2022/12/11 01:41:59;;;;;;;50.47;11.45;;;0.20;99.90;;;;;;5007517;28;20065;-36
2022/12/11 01:44:25;;;;;;;53.70;13.65;;;0.20;99.90;;;;;;5005300;28;20046;-36
2022/12/11 01:46:52;;;;;;;43.03;12.70;;;0.20;99.90;;;;;;5001659;28;20044;-36
2022/12/11 01:49:23;;;;;;;49.40;12.68;;;0.20;99.90;;;;;;5007513;28;20118;-37
2022/12/11 01:52:04;;;;;;;56.95;13.85;;;0.30;99.90;;;;;;5003082;28;20095;-36
2022/12/11 01:54:31;;;;;;;34.95;11.25;;;0.30;99.90;;;;;;5008121;28;20177;-36
2022/12/11 01:57:01;;;;;;;45.97;10.93;;;0.30;99.90;;;;;;5007806;28;20050;-40
2022/12/11 01:59:29;;;;;;;44.40;10.73;;;0.30;99.90;;;;;;5005298;28;20038;-38
2022/12/11 02:02:07;;;;;;;62.53;14.60;;;0.30;99.90;;;;;;5003123;28;20042;-36
2022/12/11 02:04:36;;;;;;;49.38;12.85;;;0.30;99.90;;;;;;5003796;28;20037;-34
2022/12/11 02:07:02;;;;;;;63.15;14.02;;;0.30;99.90;;;;;;5009124;28;20041;-37
2022/12/11 02:09:31;;;;;;;48.90;12.98;;;0.30;99.90;;;;;;5005765;28;20045;-36
2022/12/11 02:12:00;;;;;;;52.40;12.77;;;0.30;99.90;;;;;;5006565;28;20049;-37
2022/12/11 02:14:28;;;;;;;54.55;11.93;;;0.30;99.90;;;;;;5006012;28;20706;-36
2022/12/11 02:17:22;;;;;;;48.95;11.95;;;0.30;99.90;;;;;;5006625;28;20048;-37
2022/12/11 02:20:02;;;;;;;54.95;13.60;;;0.30;99.90;;;;;;4991482;28;20058;-36
2022/12/11 02:22:42;;;;;;;40.60;11.68;;;0.40;99.90;;;;;;5003294;28;20054;-37
2022/12/11 02:25:14;;;;;;;51.03;13.07;;;0.40;99.90;;;;;;5003263;28;20083;-36
2022/12/11 02:28:14;;;;;;;54.40;13.45;;;0.40;99.90;;;;;;5005576;28;20037;-36
2022/12/11 02:30:44;;;;;;;39.78;10.43;;;0.40;99.90;;;;;;5004548;28;20046;-36
2022/12/11 02:33:12;;;;;;;40.42;11.57;;;0.40;99.90;;;;;;4996766;28;20480;-36
2022/12/11 02:35:41;;;;;;;48.25;11.65;;;0.40;99.90;;;;;;5004369;28;20042;-37
2022/12/11 02:38:19;;;;;;;47.33;11.95;;;0.40;99.90;;;;;;5000162;28;20553;-37
2022/12/11 02:40:50;;;;;;;43.42;11.50;;;0.40;99.90;;;;;;4999850;28;20038;-36
2022/12/11 02:43:18;;;;;;;46.88;11.82;;;0.40;99.90;;;;;;5006533;28;20041;-38
2022/12/11 02:45:46;;;;;;;46.90;12.90;;;0.40;99.90;;;;;;5002642;28;20037;-38
2022/12/11 02:48:13;;;;;;;49.42;12.82;;;0.40;99.90;;;;;;4991763;28;20487;-36
2022/12/11 02:50:45;;;;;;;47.13;13.07;;;0.40;99.90;;;;;;5002056;28;20042;-36
2022/12/11 02:53:14;;;;;;;48.30;12.35;;;0.40;99.90;;;;;;4996694;28;20090;-36
2022/12/11 02:55:41;;;;;;;49.97;11.70;;;0.50;99.90;;;;;;5000234;28;20046;-38
2022/12/11 02:58:11;;;;;;;51.20;13.27;;;0.50;99.90;;;;;;5005651;28;20507;-36
2022/12/11 03:00:37;;;;;;;34.08;10.60;;;0.50;99.90;;;;;;5004319;28;20483;-36
2022/12/11 03:03:03;;;;;;;50.35;12.07;;;0.50;99.90;;;;;;5006417;28;20042;-36
2022/12/11 03:05:29;;;;;;;37.78;11.20;;;0.50;99.90;;;;;;5007291;28;20501;-37
2022/12/11 03:07:55;;;;;;;52.58;13.68;;;0.50;99.90;;;;;;5002728;28;20049;-37
2022/12/11 03:10:22;;;;;;;44.92;12.20;;;0.50;99.90;;;;;;4999296;28;20037;-37
2022/12/11 03:12:52;;;;;;;41.33;10.57;;;0.50;99.90;;;;;;5003591;28;20102;-37
2022/12/11 03:15:20;;;;;;;44.60;12.65;;;0.50;99.90;;;;;;5004245;28;20049;-38
2022/12/11 03:18:04;;;;;;;42.75;11.77;;;0.50;99.90;;;;;;5010630;28;20499;-37
2022/12/11 03:21:16;;;;;;;47.72;11.88;;;0.50;99.90;;;;;;5007487;28;20534;-36
2022/12/11 03:23:53;;;;;;;45.50;12.27;;;0.50;99.90;;;;;;4973213;28;20073;-36
2022/12/11 03:26:19;;;;;;;37.53;10.20;;;0.50;99.90;;;;;;4985035;28;20509;-38
2022/12/11 03:28:59;;;;;;;34.50;10.20;;;0.50;99.90;;;;;;4989318;28;20565;-37
2022/12/11 03:31:28;;;;;;;39.85;10.52;;;0.50;99.90;;;;;;4988084;28;20487;-36
2022/12/11 03:33:57;;;;;;;39.13;10.90;;;0.60;99.90;;;;;;4989784;28;20050;-37
2022/12/11 03:36:31;;;;;;;36.88;11.80;;;0.60;99.90;;;;;;4991527;28;20487;-38
2022/12/11 03:39:06;;;;;;;37.00;10.40;;;0.60;99.90;;;;;;4986749;28;20039;-37
2022/12/11 03:41:34;;;;;;;38.33;10.80;;;0.60;99.90;;;;;;4988879;28;20037;-38
2022/12/11 03:44:00;;;;;;;40.13;10.68;;;0.60;99.90;;;;;;4989861;28;20061;-36
2022/12/11 03:46:32;;;;;;;42.80;10.55;;;0.60;99.90;;;;;;4982854;28;20053;-36
2022/12/11 03:49:02;;;;;;;35.13;10.70;;;0.60;99.90;;;;;;4985363;28;20050;-37
2022/12/11 03:51:31;;;;;;;37.13;10.00;;;0.60;99.90;;;;;;4987276;28;20790;-36
2022/12/11 03:53:58;;;;;;;43.80;10.93;;;0.60;99.90;;;;;;4988028;28;20069;-38
2022/12/11 03:56:27;;;;;;;45.97;11.15;;;0.60;99.90;;;;;;4990141;28;20046;-36
2022/12/11 03:58:53;;;;;;;36.25;10.68;;;0.60;99.90;;;;;;4987335;28;20463;-36
2022/12/11 04:01:18;;;;;;;39.58;11.30;;;0.60;99.90;;;;;;4987795;28;20411;-38
2022/12/11 04:03:44;;;;;;;40.85;11.63;;;0.60;99.90;;;;;;4992556;28;20030;-38
2022/12/11 04:06:10;;;;;;;38.80;11.73;;;0.60;99.90;;;;;;4989519;28;20045;-36
2022/12/11 04:08:35;;;;;;;40.40;11.32;;;0.60;99.90;;;;;;4985990;28;20576;-38
2022/12/11 04:15:00;;;;;;;37.05;8.88;;;0.70;99.90;;;;;;4984698;28;20086;-36
2022/12/11 04:16:32;;;;;;;38.20;11.38;;;0.70;99.90;;;;;;4986024;28;20038;-36
2022/12/11 04:24:27;;;;;;;37.30;9.63;;;0.70;99.90;;;;;;5005375;28;20141;-38
2022/12/11 04:26:52;;;;;;;35.47;11.38;;;0.70;99.90;;;;;;5008504;28;20132;-36
2022/12/11 04:29:18;;;;;;;38.45;10.93;;;0.70;99.90;;;;;;5002329;28;20362;-37
2022/12/11 04:31:44;;;;;;;42.38;10.40;;;0.70;99.90;;;;;;5002756;28;20037;-40
2022/12/11 04:34:10;;;;;;;35.30;10.13;;;0.70;99.90;;;;;;5008154;28;20435;-37
2022/12/11 04:36:36;;;;;;;30.20;9.88;;;0.70;99.90;;;;;;5006257;28;20037;-36
2022/12/11 04:39:04;;;;;;;34.88;10.98;;;0.70;99.90;;;;;;5006869;28;20045;-36
2022/12/11 04:41:30;;;;;;;35.33;9.85;;;0.70;99.90;;;;;;5005958;28;20030;-36
2022/12/11 04:43:55;;;;;;;37.60;10.77;;;0.70;99.90;;;;;;5007230;28;20100;-36
2022/12/11 04:46:23;;;;;;;39.47;11.43;;;0.70;99.90;;;;;;5006128;28;20041;-37
2022/12/11 04:48:50;;;;;;;47.80;12.15;;;0.70;99.90;;;;;;4998465;28;20059;-38
2022/12/11 04:51:16;;;;;;;43.15;12.07;;;0.70;99.90;;;;;;5005244;28;20037;-36
2022/12/11 04:53:42;;;;;;;39.63;9.52;;;0.70;99.90;;;;;;5008281;28;20126;-36
2022/12/11 04:56:10;;;;;;;40.17;10.27;;;0.70;99.90;;;;;;5006049;28;20072;-36
2022/12/11 04:58:37;;;;;;;42.17;10.68;;;0.70;99.90;;;;;;5005640;28;20038;-37
2022/12/11 05:01:09;;;;;;;39.85;11.57;;;0.70;99.90;;;;;;5005269;28;20034;-36
2022/12/11 05:03:35;;;;;;;31.20;9.13;;;0.80;99.90;;;;;;5008526;28;20395;-36
2022/12/11 05:06:01;;;;;;;41.53;11.13;;;0.80;99.90;;;;;;5005614;28;20088;-37
2022/12/11 05:08:27;;;;;;;39.30;10.55;;;0.80;99.90;;;;;;5002125;28;20046;-37
2022/12/11 05:11:01;;;;;;;40.70;11.13;;;0.80;99.90;;;;;;5004788;28;20068;-37
2022/12/11 05:13:28;;;;;;;43.42;12.25;;;0.80;99.90;;;;;;5007849;28;20050;-37
2022/12/11 05:15:54;;;;;;;38.05;10.60;;;0.80;99.90;;;;;;5002390;28;20076;-37
2022/12/11 05:18:20;;;;;;;37.60;10.73;;;0.80;99.90;;;;;;5006072;28;20034;-37
2022/12/11 05:20:57;;;;;;;36.95;9.55;;;0.80;99.90;;;;;;5006691;28;20384;-36
2022/12/11 05:23:24;;;;;;;40.25;11.13;;;0.80;99.90;;;;;;5003057;28;20515;-36
2022/12/11 05:25:58;;;;;;;41.42;11.75;;;0.80;99.90;;;;;;5006089;28;20038;-37
2022/12/11 05:28:25;;;;;;;44.15;12.18;;;0.80;99.90;;;;;;5000304;28;20042;-39
2022/12/11 05:31:03;;;;;;;44.47;12.20;;;0.80;99.90;;;;;;5019668;28;20077;-36
2022/12/11 05:33:29;;;;;;;39.88;10.77;;;0.80;99.90;;;;;;5005168;28;20041;-37
2022/12/11 05:35:55;;;;;;;53.15;11.82;;;0.80;99.90;;;;;;5000736;28;20483;-38
2022/12/11 05:38:21;;;;;;;41.30;10.30;;;0.80;99.90;;;;;;5006997;28;20067;-37
2022/12/11 05:41:05;;;;;;;41.25;10.40;;;0.70;99.90;;;;;;5003849;28;20065;-37
2022/12/11 05:43:35;;;;;;;48.08;11.10;;;0.70;99.90;;;;;;5004774;28;20048;-39
2022/12/11 05:46:10;;;;;;;33.30;10.35;;;0.70;99.90;;;;;;5004825;28;20042;-38
2022/12/11 05:48:37;;;;;;;40.42;10.40;;;0.80;99.90;;;;;;5005097;28;20526;-37
2022/12/11 05:51:04;;;;;;;40.40;11.10;;;0.80;99.90;;;;;;5001723;28;20069;-36
2022/12/11 05:53:30;;;;;;;41.47;10.93;;;0.80;99.90;;;;;;5002974;28;20494;-38
2022/12/11 05:56:07;;;;;;;32.45;9.23;;;0.80;99.90;;;;;;5006074;28;20045;-36
2022/12/11 05:58:34;;;;;;;39.30;10.02;;;0.80;99.90;;;;;;5005079;28;20523;-36
2022/12/11 06:01:00;;;;;;;36.95;10.02;;;0.80;99.90;;;;;;5001437;28;20093;-37
2022/12/11 06:03:26;;;;;;;37.83;11.00;;;0.70;99.90;;;;;;5004539;28;20070;-37
2022/12/11 06:05:52;;;;;;;41.85;12.07;;;0.80;99.90;;;;;;5006405;28;20690;-36
2022/12/11 06:08:18;;;;;;;37.58;9.80;;;0.70;99.90;;;;;;5007617;28;20037;-36
2022/12/11 06:10:47;;;;;;;33.25;10.32;;;0.80;99.90;;;;;;4999801;28;20034;-36
2022/12/11 06:13:14;;;;;;;40.55;11.65;;;0.80;99.90;;;;;;5007181;28;20157;-41
2022/12/11 06:15:40;;;;;;;35.05;11.52;;;0.80;99.90;;;;;;5004430;28;20506;-37
2022/12/11 06:18:06;;;;;;;42.50;12.18;;;0.80;99.90;;;;;;5002975;28;20074;-38
2022/12/11 06:20:32;;;;;;;41.58;10.30;;;0.80;99.90;;;;;;5005278;28;20034;-37
2022/12/11 06:22:59;;;;;;;44.35;11.95;;;0.80;99.90;;;;;;5001076;28;20050;-36
2022/12/11 06:25:25;;;;;;;44.85;11.30;;;0.70;99.90;;;;;;5001871;28;20565;-37
2022/12/11 06:27:50;;;;;;;41.53;10.23;;;0.80;99.90;;;;;;5005198;28;20052;-36
2022/12/11 06:30:16;;;;;;;37.90;11.93;;;0.80;99.90;;;;;;5001818;28;20128;-37
2022/12/11 06:32:42;;;;;;;41.25;11.27;;;0.80;99.90;;;;;;5005721;28;20038;-36
2022/12/11 06:35:09;;;;;;;38.03;10.82;;;0.80;99.90;;;;;;5005687;28;20049;-37
2022/12/11 06:37:35;;;;;;;42.90;11.32;;;0.80;99.90;;;;;;5002895;28;20065;-38
2022/12/11 06:40:02;;;;;;;40.78;11.38;;;0.80;99.90;;;;;;5005776;28;20046;-36
2022/12/11 06:42:29;;;;;;;32.63;9.90;;;0.80;99.90;;;;;;5005834;28;20037;-37
2022/12/11 06:44:56;;;;;;;40.47;11.65;;;0.80;99.90;;;;;;5007956;28;20112;-37
2022/12/11 06:47:22;;;;;;;39.15;10.10;;;0.80;99.90;;;;;;5003692;28;20049;-36
2022/12/11 06:49:47;;;;;;;39.72;10.90;;;0.80;99.90;;;;;;5002959;28;20064;-38
2022/12/11 06:52:13;;;;;;;41.75;10.95;;;0.80;99.90;;;;;;5004497;28;20491;-36
2022/12/11 06:54:39;;;;;;;38.95;11.48;;;0.80;99.90;;;;;;5003285;28;20121;-36
2022/12/11 06:57:04;;;;;;;42.50;11.50;;;0.80;99.90;;;;;;5006354;28;20042;-36
2022/12/11 06:59:30;;;;;;;39.78;11.23;;;0.80;99.90;;;;;;5004812;28;20467;-37
2022/12/11 07:01:56;;;;;;;40.05;11.73;;;0.80;99.90;;;;;;4997580;28;20042;-37
2022/12/11 07:04:24;;;;;;;49.53;12.15;;;0.80;99.90;;;;;;5001560;28;20041;-37
2022/12/11 07:06:50;;;;;;;45.28;11.15;;;0.80;99.90;;;;;;5005740;28;20057;-38
2022/12/11 07:09:16;;;;;;;37.90;11.23;;;0.80;99.90;;;;;;5003499;28;20585;-38
2022/12/11 07:11:41;;;;;;;47.42;10.68;;;0.80;99.90;;;;;;5006210;28;20478;-37
2022/12/11 07:14:08;;;;;;;45.38;10.10;;;0.80;99.90;;;;;;4998037;28;20069;-37
2022/12/11 07:16:33;;;;;;;42.95;12.70;;;0.80;99.90;;;;;;5001981;28;20413;-36
2022/12/11 07:18:59;;;;;;;36.85;9.70;;;0.80;99.90;;;;;;5001418;28;20035;-38
2022/12/11 07:21:25;;;;;;;46.15;11.85;;;0.80;99.90;;;;;;5001990;28;20869;-37
2022/12/11 07:23:51;;;;;;;44.05;10.90;;;0.80;99.90;;;;;;4997983;28;20149;-37
2022/12/11 07:26:19;;;;;;;37.55;10.63;;;0.80;99.90;;;;;;4999414;28;20395;-37
2022/12/11 07:28:45;;;;;;;43.55;11.73;;;0.80;99.90;;;;;;5002467;28;20551;-37
2022/12/11 07:31:14;;;;;;;43.70;11.35;;;0.90;99.90;;;;;;5006772;28;20121;-37
2022/12/11 07:33:39;;;;;;;39.33;10.95;;;0.80;99.90;;;;;;5003900;28;20518;-37
2022/12/11 07:36:09;;;;;;;43.63;12.80;;;0.90;99.90;;;;;;5005612;28;20133;-38
2022/12/11 07:38:36;;;;;;;33.80;11.25;;;0.80;99.90;;;;;;5007815;28;20042;-38
2022/12/11 07:41:06;;;;;;;38.33;12.02;;;0.80;99.90;;;;;;5005055;28;20041;-36
2022/12/11 07:43:34;;;;;;;37.03;10.73;;;0.80;99.90;;;;;;5006588;28;20038;-37
2022/12/11 07:46:09;;;;;;;43.60;11.13;;;0.80;99.90;;;;;;5002257;28;20041;-37
2022/12/11 07:48:35;;;;;;;39.70;10.52;;;0.80;99.90;;;;;;5006702;28;20445;-37
2022/12/11 07:51:13;;;;;;;39.95;11.20;;;0.80;99.90;;;;;;4997274;28;20054;-36
2022/12/11 07:53:40;;;;;;;39.10;11.35;;;0.80;99.90;;;;;;5003266;28;20040;-38
2022/12/11 07:56:06;;;;;;;40.15;11.43;;;0.80;99.90;;;;;;5004935;28;20042;-37
2022/12/11 07:58:32;;;;;;;38.50;11.60;;;0.90;99.90;;;;;;5003531;28;20042;-37
2022/12/11 08:00:58;;;;;;;38.85;10.40;;;0.80;99.90;;;;;;5007451;28;20498;-38
2022/12/11 08:03:24;;;;;;;38.10;10.38;;;0.80;99.90;;;;;;5009630;28;20038;-37
2022/12/11 08:05:51;;;;;;;34.83;10.30;;;0.80;99.90;;;;;;5006119;28;20048;-36
2022/12/11 08:08:17;;;;;;;41.13;11.48;;;0.90;99.90;;;;;;5002509;28;20104;-37
2022/12/11 08:10:44;;;;;;;43.92;12.45;;;0.90;99.90;;;;;;5010408;28;20711;-36
2022/12/11 08:13:10;;;;;;;40.05;11.75;;;0.90;99.90;;;;;;5002951;28;20046;-37
2022/12/11 08:15:35;;;;;;;46.60;12.27;;;0.90;99.90;;;;;;5010681;28;20068;-37
2022/12/11 08:18:01;;;;;;;45.72;11.23;;;0.90;99.90;;;;;;5005028;28;20030;-38
2022/12/11 08:20:27;;;;;;;41.83;11.63;;;0.90;99.90;;;;;;5001727;28;20127;-37
2022/12/11 08:22:52;;;;;;;39.35;11.13;;;0.90;99.90;;;;;;5002551;28;20053;-39
2022/12/11 08:25:18;;;;;;;42.53;10.63;;;0.90;99.90;;;;;;5004692;28;20050;-38
2022/12/11 08:27:44;;;;;;;39.22;10.88;;;0.90;99.90;;;;;;5013804;28;20488;-36
2022/12/11 08:30:10;;;;;;;44.80;11.63;;;0.90;99.90;;;;;;5005247;28;20033;-37
2022/12/11 08:32:36;;;;;;;41.22;11.20;;;0.90;99.90;;;;;;5003755;28;20042;-37
2022/12/11 08:35:02;;;;;;;38.72;10.95;;;0.90;99.90;;;;;;5007356;28;20044;-40
2022/12/11 08:37:28;;;;;;;34.00;9.93;;;0.90;99.90;;;;;;4992880;28;20038;-44
2022/12/11 08:39:54;;;;;;;39.40;10.90;;;0.90;99.90;;;;;;5002101;28;20053;-37
2022/12/11 08:42:20;;;;;;;36.97;11.68;;;0.90;99.90;;;;;;5004437;28;20040;-37
2022/12/11 08:44:45;;;;;;;40.92;11.25;;;1.00;99.90;;;;;;4997557;28;20041;-38
2022/12/11 08:47:11;;;;;;;43.20;12.57;;;1.00;99.90;;;;;;5004396;28;20418;-38
2022/12/11 08:49:37;;;;;;;35.55;9.88;;;1.00;99.90;;;;;;5004642;28;20065;-36
2022/12/11 08:52:03;;;;;;;38.33;12.55;;;1.00;99.90;;;;;;5005438;28;20046;-39
2022/12/11 08:54:29;;;;;;;29.52;9.23;;;1.00;99.90;;;;;;5004963;28;20560;-37
2022/12/11 08:56:55;;;;;;;39.03;10.90;;;1.00;99.90;;;;;;5009420;28;20112;-39
2022/12/11 08:59:21;;;;;;;38.15;11.65;;;1.00;99.90;;;;;;5022635;28;20049;-37
2022/12/11 09:01:47;;;;;;;35.58;10.25;;;1.00;99.90;;;;;;5004433;28;20129;-37
2022/12/11 09:04:13;;;;;;;41.38;11.63;;;1.00;99.90;;;;;;5003065;28;20033;-36
2022/12/11 09:06:39;;;;;;;34.67;11.25;;;1.00;99.90;;;;;;5007523;28;20052;-37
2022/12/11 09:09:05;;;;;;;36.28;10.55;;;1.10;99.90;;;;;;5004109;28;20029;-37
2022/12/11 09:11:34;;;;;;;38.15;11.70;;;1.10;99.90;;;;;;5005249;28;20050;-38
2022/12/11 09:14:00;;;;;;;37.17;10.25;;;1.10;99.90;;;;;;5007037;28;20076;-37
2022/12/11 09:16:26;;;;;;;32.97;10.82;;;1.10;99.90;;;;;;5005197;28;20054;-39
2022/12/11 09:18:55;;;;;;;39.97;10.88;;;1.10;99.90;;;;;;5006002;28;20125;-37
2022/12/11 09:21:23;;;;;;;41.42;12.38;;;1.10;99.90;;;;;;5004962;28;20145;-39
2022/12/11 09:23:52;;;;;;;35.25;10.43;;;1.10;99.90;;;;;;5004822;28;20066;-39
2022/12/11 09:26:18;;;;;;;41.33;12.63;;;1.10;99.90;;;;;;5009585;28;20042;-37
2022/12/11 09:28:45;;;;;;;42.92;10.82;;;1.10;99.90;;;;;;4999552;28;20572;-36
2022/12/11 09:31:17;;;;;;;37.38;10.82;;;1.10;99.90;;;;;;5009063;28;20045;-38
2022/12/11 09:33:43;;;;;;;33.72;10.35;;;1.10;99.90;;;;;;5006235;28;20550;-36
2022/12/11 09:36:10;;;;;;;38.10;10.60;;;1.10;99.90;;;;;;5005307;28;20380;-37
2022/12/11 09:38:36;;;;;;;37.92;11.32;;;1.10;99.90;;;;;;5008783;28;20046;-37
2022/12/11 09:41:34;;;;;;;41.25;12.10;;;1.10;99.90;;;;;;5001762;28;20498;-39
2022/12/11 09:44:12;;;;;;;34.25;10.02;;;1.20;99.90;;;;;;5001500;28;20042;-37
2022/12/11 09:46:39;;;;;;;33.75;10.25;;;1.10;99.90;;;;;;5019148;28;20100;-38
2022/12/11 09:49:19;;;;;;;40.78;12.88;;;1.20;99.90;;;;;;5007059;28;20454;-37
2022/12/11 09:52:04;;;;;;;43.95;11.88;;;1.20;99.90;;;;;;5003684;28;20038;-37
2022/12/11 09:54:30;;;;;;;34.60;11.07;;;1.20;99.90;;;;;;5007658;28;20048;-45
2022/12/11 09:57:02;;;;;;;37.03;12.05;;;1.20;99.90;;;;;;5004763;28;20096;-42
2022/12/11 09:59:57;;;;;;;34.10;10.70;;;1.20;99.90;;;;;;5006154;28;20499;-45
2022/12/11 10:02:28;;;;;;;44.13;13.45;;;1.20;99.90;;;;;;4963193;28;20039;-40
2022/12/11 10:05:16;;;;;;;37.60;11.65;;;1.20;99.90;;;;;;5000101;28;20045;-40
2022/12/11 10:07:54;;;;;;;34.58;11.25;;;1.20;99.90;;;;;;5004586;28;20499;-41
2022/12/11 10:10:38;;;;;;;33.50;10.27;;;1.20;99.90;;;;;;5006630;28;20041;-41
2022/12/11 10:13:16;;;;;;;33.15;10.77;;;1.20;99.90;;;;;;5002066;28;20050;-40
2022/12/11 10:16:17;;;;;;;32.95;11.32;;;1.20;99.90;;;;;;5005211;28;20077;-47
2022/12/11 10:18:43;;;;;;;38.72;11.98;;;1.30;99.90;;;;;;5004236;28;20483;-42
2022/12/11 10:21:11;;;;;;;37.22;10.90;;;1.20;99.90;;;;;;5000688;28;20057;-40
2022/12/11 10:23:53;;;;;;;36.50;10.70;;;1.30;99.90;;;;;;4999098;28;20411;-42
2022/12/11 10:26:22;;;;;;;37.95;10.40;;;1.30;99.90;;;;;;4998074;28;20084;-41
2022/12/11 10:28:48;;;;;;;41.42;11.68;;;1.30;99.90;;;;;;5002815;28;20575;-41
2022/12/11 10:31:17;;;;;;;33.88;10.55;;;1.30;99.90;;;;;;5001075;28;20130;-45
2022/12/11 10:33:56;;;;;;;31.00;12.00;;;1.30;99.90;;;;;;4999687;28;20045;-39
2022/12/11 10:36:36;;;;;;;36.90;10.93;;;1.30;99.90;;;;;;4996759;28;20037;-41
2022/12/11 10:39:03;;;;;;;32.22;10.60;;;1.30;99.90;;;;;;5000069;28;20048;-44
2022/12/11 10:41:58;;;;;;;32.05;11.60;;;1.30;99.90;;;;;;5001889;28;20049;-44
2022/12/11 10:44:28;;;;;;;33.60;11.15;;;1.30;99.90;;;;;;4985933;28;20054;-44
2022/12/11 10:47:16;;;;;;;28.15;10.32;;;1.30;99.90;;;;;;4999149;28;20045;-43
2022/12/11 10:49:52;;;;;;;34.90;11.50;;;1.30;99.90;;;;;;5001498;28;20592;-41
2022/12/11 10:52:19;;;;;;;33.42;10.45;;;1.40;99.90;;;;;;4996089;28;20053;-40
2022/12/11 10:54:53;;;;;;;30.23;10.63;;;1.40;99.90;;;;;;5003142;28;20073;-41
2022/12/11 10:57:30;;;;;;;33.35;10.90;;;1.30;99.90;;;;;;5003800;28;20552;-43
2022/12/11 10:59:57;;;;;;;37.83;13.15;;;1.40;99.90;;;;;;4999958;28;20087;-41
2022/12/11 11:02:37;;;;;;;33.97;10.27;;;1.40;99.90;;;;;;5002816;28;20091;-41
2022/12/11 11:05:14;;;;;;;34.92;11.18;;;1.40;99.90;;;;;;5003860;28;20077;-44
2022/12/11 11:07:40;;;;;;;31.60;11.98;;;1.40;99.90;;;;;;4999744;28;20042;-45
2022/12/11 11:10:16;;;;;;;31.98;10.52;;;1.40;99.90;;;;;;5001287;28;20034;-43
2022/12/11 11:12:48;;;;;;;35.67;11.50;;;1.40;99.90;;;;;;4997562;28;20099;-42
2022/12/11 11:15:18;;;;;;;33.22;12.45;;;1.40;99.90;;;;;;5004155;28;20056;-44
2022/12/11 11:17:52;;;;;;;30.80;11.27;;;1.40;99.90;;;;;;5002241;28;20038;-42
2022/12/11 11:20:21;;;;;;;32.58;11.23;;;1.40;99.90;;;;;;4998347;28;20498;-43
2022/12/11 11:22:50;;;;;;;31.02;11.75;;;1.40;99.90;;;;;;5000992;28;20058;-42
2022/12/11 11:25:20;;;;;;;30.33;11.73;;;1.40;99.90;;;;;;4998069;28;20129;-40
2022/12/11 11:28:03;;;;;;;29.20;11.68;;;1.30;99.90;;;;;;5001616;28;20045;-44
2022/12/11 11:30:40;;;;;;;24.25;10.50;;;1.40;99.90;;;;;;5003677;28;20157;-40
2022/12/11 11:33:19;;;;;;;28.52;10.73;;;1.40;99.90;;;;;;4999875;28;20521;-40
2022/12/11 11:35:57;;;;;;;25.38;9.65;;;1.30;99.90;;;;;;5004013;28;20565;-43
2022/12/11 11:38:46;;;;;;;28.48;10.55;;;1.30;99.90;;;;;;5007658;28;20041;-41
2022/12/11 11:41:20;;;;;;;26.00;9.45;;;1.30;99.90;;;;;;5001509;28;20112;-44
2022/12/11 11:43:50;;;;;;;23.83;9.85;;;1.30;99.90;;;;;;5007000;28;20141;-44
2022/12/11 11:46:15;;;;;;;25.33;10.95;;;1.30;99.90;;;;;;5003190;28;20041;-41
2022/12/11 11:48:47;;;;;;;25.23;10.35;;;1.30;99.90;;;;;;5004939;28;20049;-46
2022/12/11 11:51:18;;;;;;;28.88;11.05;;;1.30;99.90;;;;;;5002664;28;20103;-42
2022/12/11 11:53:53;;;;;;;24.75;8.35;;;1.30;99.90;;;;;;5005444;28;20483;-41
2022/12/11 11:56:22;;;;;;;26.83;10.57;;;1.30;99.90;;;;;;5004304;28;20038;-43
2022/12/11 11:59:04;;;;;;;25.00;9.95;;;1.20;99.90;;;;;;5009632;28;20590;-42
2022/12/11 12:01:30;;;;;;;19.98;8.85;;;1.20;99.90;;;;;;5007801;28;20557;-41
2022/12/11 12:04:01;;;;;;;22.15;9.65;;;1.20;99.90;;;;;;5006577;28;20042;-44
2022/12/11 12:06:37;;;;;;;24.23;9.68;;;1.20;99.90;;;;;;5008294;28;20042;-42
2022/12/11 12:09:19;;;;;;;26.42;10.23;;;1.20;99.90;;;;;;5009544;28;20048;-42
2022/12/11 12:11:44;;;;;;;25.67;10.77;;;1.20;99.90;;;;;;5009028;28;20052;-39
2022/12/11 12:14:20;;;;;;;23.42;10.27;;;1.20;99.90;;;;;;5005267;28;20041;-44
2022/12/11 12:17:11;;;;;;;24.55;9.90;;;1.20;99.90;;;;;;5003479;28;20042;-43
2022/12/11 12:19:47;;;;;;;22.50;9.68;;;1.20;99.90;;;;;;5003622;28;20807;-42
2022/12/11 12:22:39;;;;;;;22.83;9.13;;;1.20;99.90;;;;;;5002854;28;20085;-42
2022/12/11 12:25:13;;;;;;;20.75;9.70;;;1.20;99.90;;;;;;5000411;28;20505;-44
2022/12/11 12:28:18;;;;;;;21.80;9.60;;;1.10;99.90;;;;;;5004097;28;20052;-42
2022/12/11 12:31:09;;;;;;;21.48;8.48;;;1.10;99.90;;;;;;4994614;28;20125;-44
2022/12/11 12:33:49;;;;;;;23.63;9.63;;;1.10;99.90;;;;;;5005896;28;20048;-43
2022/12/11 12:36:42;;;;;;;23.45;9.13;;;1.10;99.90;;;;;;5003810;28;20495;-40
2022/12/11 12:39:46;;;;;;;22.35;8.90;;;1.00;99.90;;;;;;5020755;28;20479;-44
2022/12/11 12:42:14;;;;;;;;;;;1.00;99.90;;;;;;5006853;28;20041;-42
2022/12/11 12:45:00;;;;;;;19.90;8.25;;;1.10;99.90;;;;;;5007050;28;20023;-41
2022/12/11 12:47:30;;;;;;;21.85;9.02;;;1.10;99.90;;;;;;4998269;28;20058;-45
2022/12/11 12:49:59;;;;;;;23.10;9.20;;;1.10;99.90;;;;;;4997584;28;20041;-39
2022/12/11 12:52:37;;;;;;;20.90;8.35;;;1.20;99.90;;;;;;5004122;28;20049;-42
2022/12/11 12:55:17;;;;;;;23.88;8.45;;;1.20;99.90;;;;;;5002774;28;20463;-43
2022/12/11 12:57:53;;;;;;;20.20;8.32;;;1.20;99.90;;;;;;5006047;28;20046;-43
2022/12/11 13:00:27;;;;;;;20.70;7.93;;;1.20;99.90;;;;;;5006042;28;20049;-42
2022/12/11 13:02:55;;;;;;;20.33;7.90;;;1.20;99.90;;;;;;5004912;28;20064;-43